Time;durP1;ratioP1;P1;durP2;ratioP2;P2;SDS_P1;SDS_P2;PMS_P1;PMS_P2;Temp;Humidity;BMP_temperature;BMP_pressure;BME280_temperature;BME280_humidity;BME280_pressure;Samples;Min_cycle;Max_cycle;Signal;HPM_P1;HPM_P2
2022/08/06 00:00:13;;;;;;;;;;;;;;;;;;5071848;28;20389;-66
2022/08/06 00:02:41;;;;;;;;;;;;;;;;;;5072583;28;19931;-66
2022/08/06 00:05:09;;;;;;;;;;;;;;;;;;5073227;28;20058;-68
2022/08/06 00:07:36;;;;;;;;;;;;;;;;;;5073905;28;19966;-67
2022/08/06 00:10:04;;;;;;;;;;;;;;;;;;5073603;28;19931;-67
2022/08/06 00:12:32;;;;;;;;;;;;;;;;;;5073473;28;19925;-67
2022/08/06 00:14:59;;;;;;;;;;;;;;;;;;5073402;28;20288;-66
2022/08/06 00:17:27;;;;;;;;;;;;;;;;;;5073655;28;19925;-68
2022/08/06 00:19:56;;;;;;;;;;;;;;;;;;5073365;28;20332;-68
2022/08/06 00:22:23;;;;;;;;;;;;;;;;;;5073673;28;20328;-68
2022/08/06 00:24:50;;;;;;;;;;;;;;;;;;5074102;28;19929;-67
2022/08/06 00:27:18;;;;;;;;;;;;;;;;;;5073686;28;19972;-67
2022/08/06 00:29:45;;;;;;;;;;;;;;;;;;5073722;28;19928;-66
2022/08/06 00:32:11;;;;;;;;;;;;;;;;;;5076127;28;19924;-67
2022/08/06 00:34:38;;;;;;;;;;;;;;;;;;5076315;28;20381;-68
2022/08/06 00:37:06;;;;;;;;;;;;;;;;;;5075255;28;20580;-68
2022/08/06 00:39:33;;;;;;;;;;;;;;;;;;5075287;28;19924;-67
2022/08/06 00:42:00;;;;;;;;;;;;;;;;;;5075202;28;20381;-66
2022/08/06 00:44:26;;;;;;;;;;;;;;;;;;5075759;28;19929;-66
2022/08/06 00:46:53;;;;;;;;;;;;;;;;;;5075301;28;19925;-67
2022/08/06 00:49:20;;;;;;;;;;;;;;;;;;5075005;28;19975;-67
2022/08/06 00:51:46;;;;;;;;;;;;;;;;;;5075554;28;19929;-67
2022/08/06 00:54:14;;;;;;;;;;;;;;;;;;5075183;28;19978;-67
2022/08/06 00:56:41;;;;;;;;;;;;;;;;;;5075316;28;20016;-67
2022/08/06 00:59:07;;;;;;;;;;;;;;;;;;5075314;28;20255;-67
2022/08/06 01:01:34;;;;;;;;;;;;;;;;;;5074947;28;19931;-66
2022/08/06 01:04:01;;;;;;;;;;;;;;;;;;5075069;28;20352;-67
2022/08/06 01:06:27;;;;;;;;;;;;;;;;;;5075456;28;19985;-67
2022/08/06 01:08:54;;;;;;;;;;;;;;;;;;5075234;28;20321;-66
2022/08/06 01:11:22;;;;;;;;;;;;;;;;;;5075207;28;20305;-66
2022/08/06 01:13:49;;;;;;;;;;;;;;;;;;5074846;28;19931;-66
2022/08/06 01:16:18;;;;;;;;;;;;;;;;;;5075998;28;19928;-66
2022/08/06 01:18:52;;;;;;;;;;;;;;;;;;5076676;28;19963;-67
2022/08/06 01:21:31;;;;;;;;;;;;;;;;;;5076169;28;19925;-66
2022/08/06 01:24:16;;;;;;;;;;;;;;;;;;5076090;28;19928;-66
2022/08/06 01:26:51;;;;;;;;;;;;;;;;;;5076898;28;19928;-67
2022/08/06 01:29:23;;;;;;;;;;;;;;;;;;5076152;28;19925;-66
2022/08/06 01:31:52;;;;;;;;;;;;;;;;;;5076086;28;20292;-67
2022/08/06 01:34:22;;;;;;;;;;;;;;;;;;5076081;28;19925;-66
2022/08/06 01:36:52;;;;;;;;;;;;;;;;;;5076206;28;19983;-66
2022/08/06 01:39:20;;;;;;;;;;;;;;;;;;5075767;28;20453;-66
2022/08/06 01:41:49;;;;;;;;;;;;;;;;;;5074323;28;20500;-66
2022/08/06 01:44:17;;;;;;;;;;;;;;;;;;5074400;28;19928;-67
2022/08/06 01:46:49;;;;;;;;;;;;;;;;;;5073992;28;19982;-66
2022/08/06 01:49:19;;;;;;;;;;;;;;;;;;5073926;28;19933;-66
2022/08/06 01:51:47;;;;;;;;;;;;;;;;;;5074074;28;19924;-67
2022/08/06 01:54:14;;;;;;;;;;;;;;;;;;5073719;28;20198;-66
2022/08/06 01:56:41;;;;;;;;;;;;;;;;;;5074063;28;19925;-66
2022/08/06 01:59:08;;;;;;;;;;;;;;;;;;5073805;28;19986;-67
2022/08/06 02:01:36;;;;;;;;;;;;;;;;;;5073804;28;19939;-67
2022/08/06 02:04:05;;;;;;;;;;;;;;;;;;5073985;28;19924;-67
2022/08/06 02:06:33;;;;;;;;;;;;;;;;;;5073475;28;20312;-67
2022/08/06 02:09:01;;;;;;;;;;;;;;;;;;5073601;28;19978;-67
2022/08/06 02:11:28;;;;;;;;;;;;;;;;;;5073776;28;19925;-67
2022/08/06 02:13:55;;;;;;;;;;;;;;;;;;5073532;28;19928;-67
2022/08/06 02:16:23;;;;;;;;;;;;;;;;;;5073739;28;19924;-67
2022/08/06 02:18:51;;;;;;;;;;;;;;;;;;5073401;28;19932;-67
2022/08/06 02:21:21;;;;;;;;;;;;;;;;;;5073114;28;20065;-67
2022/08/06 02:23:49;;;;;;;;;;;;;;;;;;5073400;28;19925;-67
2022/08/06 02:26:18;;;;;;;;;;;;;;;;;;5074763;28;20051;-66
2022/08/06 02:28:47;;;;;;;;;;;;;;;;;;5074464;28;20393;-67
2022/08/06 02:31:15;;;;;;;;;;;;;;;;;;5073979;28;19925;-67
2022/08/06 02:33:42;;;;;;;;;;;;;;;;;;5074162;28;19972;-66
2022/08/06 02:36:13;;;;;;;;;;;;;;;;;;5074049;28;19924;-66
2022/08/06 02:38:46;;;;;;;;;;;;;;;;;;5074427;28;19967;-66
2022/08/06 02:41:19;;;;;;;;;;;;;;;;;;5074486;28;19925;-67
2022/08/06 02:43:56;;;;;;;;;;;;;;;;;;5074359;28;19924;-66
2022/08/06 02:46:24;;;;;;;;;;;;;;;;;;5074918;28;19924;-66
2022/08/06 02:48:53;;;;;;;;;;;;;;;;;;5074632;28;19925;-66
2022/08/06 02:51:23;;;;;;;;;;;;;;;;;;5074251;28;19955;-66
2022/08/06 02:53:58;;;;;;;;;;;;;;;;;;5072084;28;20377;-67
2022/08/06 02:56:26;;;;;;;;;;;;;;;;;;5072860;28;19939;-67
2022/08/06 02:58:53;;;;;;;;;;;;;;;;;;5073061;28;19924;-66
2022/08/06 03:01:21;;;;;;;;;;;;;;;;;;5072584;28;20008;-66
2022/08/06 03:03:49;;;;;;;;;;;;;;;;;;5072568;28;19929;-67
2022/08/06 03:06:16;;;;;;;;;;;;;;;;;;5072757;28;20261;-67
2022/08/06 03:08:43;;;;;;;;;;;;;;;;;;5073092;28;20435;-66
2022/08/06 03:11:12;;;;;;;;;;;;;;;;;;5072464;28;19935;-67
2022/08/06 03:13:39;;;;;;;;;;;;;;;;;;5072825;28;19931;-67
2022/08/06 03:16:06;;;;;;;;;;;;;;;;;;5072835;28;19924;-67
2022/08/06 03:18:34;;;;;;;;;;;;;;;;;;5072570;28;19924;-67
2022/08/06 03:21:01;;;;;;;;;;;;;;;;;;5072168;28;19947;-67
2022/08/06 03:23:29;;;;;;;;;;;;;;;;;;5072335;28;20393;-67
2022/08/06 03:25:56;;;;;;;;;;;;;;;;;;5072607;28;19924;-66
2022/08/06 03:28:25;;;;;;;;;;;;;;;;;;5072140;28;19984;-67
2022/08/06 03:30:51;;;;;;;;;;;;;;;;;;5094825;22;19979;-76
2022/08/06 03:33:18;;;;;;;;;;;;;;;;;;5109382;28;20030;-76
2022/08/06 03:35:45;;;;;;;;;;;;;;;;;;5113325;28;20181;-76
2022/08/06 03:38:13;;;;;;;;;;;;;;;;;;5112719;28;19973;-76
2022/08/06 03:40:40;;;;;;;;;;;;;;;;;;5112541;28;19924;-77
2022/08/06 03:43:07;;;;;;;;;;;;;;;;;;5112677;28;19924;-77
2022/08/06 03:45:36;;;;;;;;;;;;;;;;;;5112807;28;20011;-77
2022/08/06 03:48:05;;;;;;;;;;;;;;;;;;5112747;28;19977;-77
2022/08/06 03:50:34;;;;;;;;;;;;;;;;;;5113490;28;19924;-77
2022/08/06 03:53:02;;;;;;;;;;;;;;;;;;5114281;28;19998;-76
2022/08/06 03:55:31;;;;;;;;;;;;;;;;;;5114130;28;19931;-76
2022/08/06 03:58:00;;;;;;;;;;;;;;;;;;5114159;28;20094;-77
2022/08/06 04:00:29;;;;;;;;;;;;;;;;;;5108787;28;19925;-77
2022/08/06 04:02:58;;;;;;;;;;;;;;;;;;5093037;28;19970;-77
2022/08/06 04:05:25;;;;;;;;;;;;;;;;;;5094273;28;19964;-77
2022/08/06 04:07:53;;;;;;;;;;;;;;;;;;5096824;28;20452;-77
2022/08/06 04:10:20;;;;;;;;;;;;;;;;;;5096053;28;19967;-76
2022/08/06 04:12:47;;;;;;;;;;;;;;;;;;5096203;28;19963;-76
2022/08/06 04:15:14;;;;;;;;;;;;;;;;;;5095949;28;20379;-77
2022/08/06 04:17:42;;;;;;;;;;;;;;;;;;5096438;28;19924;-77
2022/08/06 04:20:11;;;;;;;;;;;;;;;;;;5095599;28;20011;-76
2022/08/06 04:22:37;;;;;;;;;;;;;;;;;;5095843;28;20007;-76
2022/08/06 04:25:04;;;;;;;;;;;;;;;;;;5096050;28;19964;-77
2022/08/06 04:27:31;;;;;;;;;;;;;;;;;;5095927;28;19971;-77
2022/08/06 04:29:59;;;;;;;;;;;;;;;;;;5095662;28;19967;-76
2022/08/06 04:32:26;;;;;;;;;;;;;;;;;;5095487;28;19924;-76
2022/08/06 04:34:53;;;;;;;;;;;;;;;;;;5096039;28;19971;-77
2022/08/06 04:37:21;;;;;;;;;;;;;;;;;;5096029;28;19966;-77
2022/08/06 04:39:48;;;;;;;;;;;;;;;;;;5095284;28;19939;-77
2022/08/06 04:42:15;;;;;;;;;;;;;;;;;;5095479;28;20018;-76
2022/08/06 04:44:41;;;;;;;;;;;;;;;;;;5095658;28;19974;-77
2022/08/06 04:47:08;;;;;;;;;;;;;;;;;;5095708;28;19928;-76
2022/08/06 04:49:34;;;;;;;;;;;;;;;;;;5094999;28;19925;-76
2022/08/06 04:52:01;;;;;;;;;;;;;;;;;;5095289;28;20014;-77
2022/08/06 04:54:29;;;;;;;;;;;;;;;;;;5095601;28;19932;-78
2022/08/06 04:56:55;;;;;;;;;;;;;;;;;;5095468;28;20015;-77
2022/08/06 04:59:22;;;;;;;;;;;;;;;;;;5095009;28;19973;-76
2022/08/06 05:01:48;;;;;;;;;;;;;;;;;;5095589;28;20011;-77
2022/08/06 05:04:14;;;;;;;;;;;;;;;;;;5095254;28;19967;-77
2022/08/06 05:06:45;;;;;;;;;;;;;;;;;;5095416;28;20011;-77
2022/08/06 05:09:14;;;;;;;;;;;;;;;;;;5094769;28;20010;-77
2022/08/06 05:11:44;;;;;;;;;;;;;;;;;;5096976;28;20023;-77
2022/08/06 05:14:15;;;;;;;;;;;;;;;;;;5099234;28;20371;-77
2022/08/06 05:16:44;;;;;;;;;;;;;;;;;;5097450;28;19946;-77
2022/08/06 05:19:15;;;;;;;;;;;;;;;;;;5098493;28;20011;-77
2022/08/06 05:21:42;;;;;;;;;;;;;;;;;;5103697;28;19963;-77
2022/08/06 05:24:09;;;;;;;;;;;;;;;;;;5103242;28;20334;-77
2022/08/06 05:26:35;;;;;;;;;;;;;;;;;;5102653;28;20011;-76
2022/08/06 05:29:03;;;;;;;;;;;;;;;;;;5102263;28;19986;-77
2022/08/06 05:31:31;;;;;;;;;;;;;;;;;;5101250;28;20362;-77
2022/08/06 05:33:57;;;;;;;;;;;;;;;;;;5101505;28;19924;-77
2022/08/06 05:36:24;;;;;;;;;;;;;;;;;;5101847;28;19975;-77
2022/08/06 05:38:50;;;;;;;;;;;;;;;;;;5101142;28;19992;-77
2022/08/06 05:41:17;;;;;;;;;;;;;;;;;;5099306;28;19975;-77
2022/08/06 05:43:44;;;;;;;;;;;;;;;;;;5096805;28;20302;-76
2022/08/06 05:46:13;;;;;;;;;;;;;;;;;;5100562;28;20409;-77
2022/08/06 05:48:43;;;;;;;;;;;;;;;;;;5100556;28;19924;-77
2022/08/06 05:51:11;;;;;;;;;;;;;;;;;;5097737;28;19971;-77
2022/08/06 05:53:41;;;;;;;;;;;;;;;;;;5098163;28;19924;-77
2022/08/06 05:56:10;;;;;;;;;;;;;;;;;;5097611;28;20470;-78
2022/08/06 05:58:40;;;;;;;;;;;;;;;;;;5097489;28;20367;-77
2022/08/06 06:01:08;;;;;;;;;;;;;;;;;;5095516;28;19975;-77
2022/08/06 06:03:36;;;;;;;;;;;;;;;;;;5095559;28;19925;-77
2022/08/06 06:06:03;;;;;;;;;;;;;;;;;;5095861;28;19955;-77
2022/08/06 06:08:30;;;;;;;;;;;;;;;;;;5095881;28;19927;-77
2022/08/06 06:10:57;;;;;;;;;;;;;;;;;;5097891;28;19975;-77
2022/08/06 06:13:24;;;;;;;;;;;;;;;;;;5096423;28;19930;-77
2022/08/06 06:15:54;;;;;;;;;;;;;;;;;;5094674;28;19928;-77
2022/08/06 06:18:27;;;;;;;;;;;;;;;;;;5093835;28;20387;-77
2022/08/06 06:20:58;;;;;;;;;;;;;;;;;;5093802;28;19924;-77
2022/08/06 06:23:27;;;;;;;;;;;;;;;;;;5094419;28;19947;-78
2022/08/06 06:26:00;;;;;;;;;;;;;;;;;;5093940;28;19985;-77
2022/08/06 06:28:29;;;;;;;;;;;;;;;;;;5093447;28;19974;-77
2022/08/06 06:30:58;;;;;;;;;;;;;;;;;;5093006;28;20347;-76
2022/08/06 06:33:29;;;;;;;;;;;;;;;;;;5094412;28;19960;-77
2022/08/06 06:35:58;;;;;;;;;;;;;;;;;;5094468;28;20015;-77
2022/08/06 06:38:31;;;;;;;;;;;;;;;;;;5093669;28;19959;-77
2022/08/06 06:40:59;;;;;;;;;;;;;;;;;;5092970;28;19963;-77
2022/08/06 06:43:30;;;;;;;;;;;;;;;;;;5093440;28;20397;-77
2022/08/06 06:46:01;;;;;;;;;;;;;;;;;;5093155;28;20417;-77
2022/08/06 06:48:32;;;;;;;;;;;;;;;;;;5093315;28;19930;-77
2022/08/06 06:51:02;;;;;;;;;;;;;;;;;;5092821;28;20382;-77
2022/08/06 06:53:30;;;;;;;;;;;;;;;;;;5093298;28;20291;-77
2022/08/06 06:55:58;;;;;;;;;;;;;;;;;;5092754;28;19971;-77
2022/08/06 06:58:28;;;;;;;;;;;;;;;;;;5093113;28;19924;-77
2022/08/06 07:00:56;;;;;;;;;;;;;;;;;;5092717;28;19924;-77
2022/08/06 07:03:24;;;;;;;;;;;;;;;;;;5092858;28;19967;-77
2022/08/06 07:05:51;;;;;;;;;;;;;;;;;;5092867;28;19928;-77
2022/08/06 07:08:20;;;;;;;;;;;;;;;;;;5092664;28;19981;-77
2022/08/06 07:10:47;;;;;;;;;;;;;;;;;;5092424;28;19974;-77
2022/08/06 07:13:13;;;;;;;;;;;;;;;;;;5093079;28;19931;-77
2022/08/06 07:15:41;;;;;;;;;;;;;;;;;;5092814;28;19975;-77
2022/08/06 07:18:08;;;;;;;;;;;;;;;;;;5092689;28;19969;-77
2022/08/06 07:20:35;;;;;;;;;;;;;;;;;;5092236;28;19924;-77
2022/08/06 07:23:03;;;;;;;;;;;;;;;;;;5092739;28;20445;-76
2022/08/06 07:25:31;;;;;;;;;;;;;;;;;;5092948;28;19970;-77
2022/08/06 07:27:57;;;;;;;;;;;;;;;;;;5092990;28;19924;-77
2022/08/06 07:30:24;;;;;;;;;;;;;;;;;;5092063;28;20023;-77
2022/08/06 07:32:50;;;;;;;;;;;;;;;;;;5092330;28;20381;-77
2022/08/06 07:35:18;;;;;;;;;;;;;;;;;;5092911;28;19947;-77
2022/08/06 07:37:52;;;;;;;;;;;;;;;;;;5092693;28;19924;-77
2022/08/06 07:40:21;;;;;;;;;;;;;;;;;;5096430;28;19994;-77
2022/08/06 07:42:51;;;;;;;;;;;;;;;;;;5102505;28;20003;-78
2022/08/06 07:45:18;;;;;;;;;;;;;;;;;;5103057;28;20022;-77
2022/08/06 07:47:46;;;;;;;;;;;;;;;;;;5101147;28;20430;-77
2022/08/06 07:50:13;;;;;;;;;;;;;;;;;;5102268;28;19924;-77
2022/08/06 07:52:40;;;;;;;;;;;;;;;;;;5102742;28;19928;-77
2022/08/06 07:55:10;;;;;;;;;;;;;;;;;;5103507;28;19939;-78
2022/08/06 07:57:37;;;;;;;;;;;;;;;;;;5105076;28;19995;-77
2022/08/06 08:00:06;;;;;;;;;;;;;;;;;;5104517;28;19964;-77
2022/08/06 08:02:32;;;;;;;;;;;;;;;;;;5105162;28;19946;-78
2022/08/06 08:07:44;;;;;;;;;;;;;;;;;;5102912;28;20016;-77
2022/08/06 08:10:10;;;;;;;;;;;;;;;;;;5104018;28;20023;-77
2022/08/06 08:12:37;;;;;;;;;;;;;;;;;;5104849;28;19974;-77
2022/08/06 08:15:06;;;;;;;;;;;;;;;;;;5103709;28;20401;-77
2022/08/06 08:17:32;;;;;;;;;;;;;;;;;;5104072;28;19924;-76
2022/08/06 08:20:02;;;;;;;;;;;;;;;;;;5102292;28;20309;-77
2022/08/06 08:22:28;;;;;;;;;;;;;;;;;;5099639;28;20474;-77
2022/08/06 08:24:55;;;;;;;;;;;;;;;;;;5099552;28;20289;-77
2022/08/06 08:27:22;;;;;;;;;;;;;;;;;;5098929;28;19963;-77
2022/08/06 08:29:48;;;;;;;;;;;;;;;;;;5098802;28;19924;-76
2022/08/06 08:32:16;;;;;;;;;;;;;;;;;;5098740;28;19931;-76
2022/08/06 08:34:42;;;;;;;;;;;;;;;;;;5099306;28;20035;-77
2022/08/06 08:37:09;;;;;;;;;;;;;;;;;;5098875;28;19967;-77
2022/08/06 08:39:35;;;;;;;;;;;;;;;;;;5098379;28;19924;-77
2022/08/06 08:42:06;;;;;;;;;;;;;;;;;;5098734;28;19924;-76
2022/08/06 08:44:33;;;;;;;;;;;;;;;;;;5098718;28;19931;-77
2022/08/06 08:47:00;;;;;;;;;;;;;;;;;;5098737;28;19924;-77
2022/08/06 08:49:38;;;;;;;;;;;;;;;;;;5098400;28;20027;-76
2022/08/06 08:52:05;;;;;;;;;;;;;;;;;;5096528;28;19924;-77
2022/08/06 08:54:34;;;;;;;;;;;;;;;;;;5096003;28;20462;-77
2022/08/06 08:57:02;;;;;;;;;;;;;;;;;;5095178;28;20287;-77
2022/08/06 08:59:30;;;;;;;;;;;;;;;;;;5095134;28;20015;-76
2022/08/06 09:01:56;;;;;;;;;;;;;;;;;;5095076;28;20010;-77
2022/08/06 09:04:23;;;;;;;;;;;;;;;;;;5095326;28;19971;-77
2022/08/06 09:06:51;;;;;;;;;;;;;;;;;;5095262;28;20363;-77
2022/08/06 09:09:18;;;;;;;;;;;;;;;;;;5094933;28;19964;-77
2022/08/06 09:11:44;;;;;;;;;;;;;;;;;;5094705;28;20416;-77
2022/08/06 09:14:11;;;;;;;;;;;;;;;;;;5094798;28;20279;-77
2022/08/06 09:16:38;;;;;;;;;;;;;;;;;;5094779;28;19990;-77
2022/08/06 09:19:05;;;;;;;;;;;;;;;;;;5094380;28;19963;-77
2022/08/06 09:21:32;;;;;;;;;;;;;;;;;;5094875;28;19930;-77
2022/08/06 09:24:00;;;;;;;;;;;;;;;;;;5095225;28;19924;-77
2022/08/06 09:26:27;;;;;;;;;;;;;;;;;;5095263;28;19990;-77
2022/08/06 09:28:53;;;;;;;;;;;;;;;;;;5094745;28;19924;-77
2022/08/06 09:33:55;;;;;;;;;;;;;;;;;;5094004;28;19925;-78
2022/08/06 09:36:22;;;;;;;;;;;;;;;;;;5087346;28;19947;-78
2022/08/06 09:38:49;;;;;;;;;;;;;;;;;;5079673;28;19932;-77
2022/08/06 09:41:17;;;;;;;;;;;;;;;;;;5076033;28;19974;-78
2022/08/06 09:43:45;;;;;;;;;;;;;;;;;;5090503;28;19917;-77
2022/08/06 09:46:12;;;;;;;;;;;;;;;;;;5099823;28;19912;-77
2022/08/06 09:48:55;;;;;;;;;;;;;;;;;;5090316;28;19929;-79
2022/08/06 09:51:22;;;;;;;;;;;;;;;;;;5079026;28;19960;-78
2022/08/06 09:53:52;;;;;;;;;;;;;;;;;;5078974;28;19928;-79
2022/08/06 09:56:20;;;;;;;;;;;;;;;;;;5078225;28;19975;-79
2022/08/06 09:58:47;;;;;;;;;;;;;;;;;;5079584;28;19977;-79
2022/08/06 10:01:15;;;;;;;;;;;;;;;;;;5066890;28;19964;-77
2022/08/06 10:03:41;;;;;;;;;;;;;;;;;;5056643;28;19975;-77
2022/08/06 10:06:09;;;;;;;;;;;;;;;;;;5057110;28;19979;-79
2022/08/06 10:08:35;;;;;;;;;;;;;;;;;;5056888;28;20402;-78
2022/08/06 10:11:03;;;;;;;;;;;;;;;;;;5058180;28;19936;-78
2022/08/06 10:13:31;;;;;;;;;;;;;;;;;;5057223;28;19925;-79
2022/08/06 10:15:59;;;;;;;;;;;;;;;;;;5057631;28;19924;-78
2022/08/06 10:18:36;;;;;;;;;;;;;;;;;;5058100;28;19929;-79
2022/08/06 10:21:04;;;;;;;;;;;;;;;;;;5056428;28;19979;-78
2022/08/06 10:23:32;;;;;;;;;;;;;;;;;;5057529;28;20027;-79
2022/08/06 10:25:58;;;;;;;;;;;;;;;;;;5060010;28;19925;-79
2022/08/06 10:28:26;;;;;;;;;;;;;;;;;;5057393;28;20387;-79
2022/08/06 10:30:55;;;;;;;;;;;;;;;;;;5057742;28;19932;-78
2022/08/06 10:33:23;;;;;;;;;;;;;;;;;;5059096;28;20331;-83
2022/08/06 10:35:52;;;;;;;;;;;;;;;;;;5059242;28;19967;-82
2022/08/06 10:38:21;;;;;;;;;;;;;;;;;;5059014;28;19971;-78
2022/08/06 10:40:49;;;;;;;;;;;;;;;;;;5058035;28;20379;-78
2022/08/06 10:43:16;;;;;;;;;;;;;;;;;;5057677;28;19971;-80
2022/08/06 10:45:42;;;;;;;;;;;;;;;;;;5057665;28;20358;-79
2022/08/06 10:48:11;;;;;;;;;;;;;;;;;;5058263;28;20007;-79
2022/08/06 10:50:38;;;;;;;;;;;;;;;;;;5055746;28;19968;-78
2022/08/06 10:53:06;;;;;;;;;;;;;;;;;;5056050;28;19992;-78
2022/08/06 10:55:32;;;;;;;;;;;;;;;;;;5056982;28;19931;-77
2022/08/06 10:57:59;;;;;;;;;;;;;;;;;;5055759;28;20011;-77
2022/08/06 11:00:27;;;;;;;;;;;;;;;;;;5055773;28;19924;-78
2022/08/06 11:03:09;;;;;;;;;;;;;;;;;;5055639;28;20192;-79
2022/08/06 11:05:38;;;;;;;;;;;;;;;;;;5056466;28;19972;-78
2022/08/06 11:08:14;;;;;;;;;;;;;;;;;;5055664;28;19983;-78
2022/08/06 11:10:58;;;;;;;;;;;;;;;;;;5055316;28;20055;-79
2022/08/06 11:13:28;;;;;;;;;;;;;;;;;;5048431;28;20433;-78
2022/08/06 11:15:55;;;;;;;;;;;;;;;;;;5054788;28;19947;-78
2022/08/06 11:18:22;;;;;;;;;;;;;;;;;;5055284;28;19925;-78
2022/08/06 11:20:52;;;;;;;;;;;;;;;;;;5054654;28;20391;-78
2022/08/06 11:23:31;;;;;;;;;;;;;;;;;;5055450;28;19924;-78
2022/08/06 11:25:59;;;;;;;;;;;;;;;;;;5055100;28;19967;-78
2022/08/06 11:28:44;;;;;;;;;;;;;;;;;;5055891;28;20280;-78
2022/08/06 11:31:30;;;;;;;;;;;;;;;;;;5055072;28;19956;-77
2022/08/06 11:34:00;;;;;;;;;;;;;;;;;;5055061;28;19929;-78
2022/08/06 11:36:28;;;;;;;;;;;;;;;;;;5058132;28;19975;-78
2022/08/06 11:39:00;;;;;;;;;;;;;;;;;;5056586;28;19964;-78
2022/08/06 11:41:27;;;;;;;;;;;;;;;;;;5055197;28;20036;-78
2022/08/06 11:44:07;;;;;;;;;;;;;;;;;;5056846;28;20379;-79
2022/08/06 11:46:34;;;;;;;;;;;;;;;;;;5056946;28;19925;-79
2022/08/06 11:49:13;;;;;;;;;;;;;;;;;;5055966;28;19925;-78
2022/08/06 11:51:42;;;;;;;;;;;;;;;;;;5057638;28;20019;-78
2022/08/06 11:54:10;;;;;;;;;;;;;;;;;;5054863;28;19928;-78
2022/08/06 11:56:37;;;;;;;;;;;;;;;;;;5056919;28;19925;-79
2022/08/06 11:59:13;;;;;;;;;;;;;;;;;;5055809;28;19925;-78
2022/08/06 12:01:46;;;;;;;;;;;;;;;;;;5042540;28;19925;-79
2022/08/06 12:04:39;;;;;;;;;;;;;;;;;;5038941;28;19929;-79
2022/08/06 12:07:21;;;;;;;;;;;;;;;;;;5038961;28;19932;-79
2022/08/06 12:09:58;;;;;;;;;;;;;;;;;;5038523;28;19988;-78
2022/08/06 12:12:38;;;;;;;;;;;;;;;;;;5036955;28;19925;-78
2022/08/06 12:15:26;;;;;;;;;;;;;;;;;;5036866;28;19925;-78
2022/08/06 12:17:59;;;;;;;;;;;;;;;;;;5036010;28;20015;-78
2022/08/06 12:20:30;;;;;;;;;;;;;;;;;;5036803;28;19971;-78
2022/08/06 12:22:58;;;;;;;;;;;;;;;;;;5036449;28;19930;-78
2022/08/06 12:25:30;;;;;;;;;;;;;;;;;;5036433;28;19961;-78
2022/08/06 12:27:56;;;;;;;;;;;;;;;;;;5041777;28;19952;-77
2022/08/06 12:30:23;;;;;;;;;;;;;;;;;;5041782;28;19925;-77
2022/08/06 12:32:50;;;;;;;;;;;;;;;;;;5045119;28;19960;-77
2022/08/06 12:35:16;;;;;;;;;;;;;;;;;;5044386;28;20365;-78
2022/08/06 12:37:45;;;;;;;;;;;;;;;;;;5039970;28;19984;-78
2022/08/06 12:40:29;;;;;;;;;;;;;;;;;;5039720;28;19975;-78
2022/08/06 12:43:08;;;;;;;;;;;;;;;;;;5038785;28;19925;-78
2022/08/06 12:45:34;;;;;;;;;;;;;;;;;;5037613;28;20384;-78
2022/08/06 12:48:02;;;;;;;;;;;;;;;;;;5036786;28;19983;-78
2022/08/06 12:50:29;;;;;;;;;;;;;;;;;;5037039;28;20384;-78
2022/08/06 12:53:02;;;;;;;;;;;;;;;;;;5038024;28;19967;-80
2022/08/06 12:55:30;;;;;;;;;;;;;;;;;;5037773;28;19991;-79
2022/08/06 12:57:57;;;;;;;;;;;;;;;;;;5037096;28;19925;-78
2022/08/06 13:00:23;;;;;;;;;;;;;;;;;;5040414;28;20362;-79
2022/08/06 13:02:50;;;;;;;;;;;;;;;;;;5056696;28;19961;-79
2022/08/06 13:05:17;;;;;;;;;;;;;;;;;;5058074;28;19983;-79
2022/08/06 13:07:44;;;;;;;;;;;;;;;;;;5057077;28;19951;-78
2022/08/06 13:10:11;;;;;;;;;;;;;;;;;;5056932;28;20355;-78
2022/08/06 13:12:38;;;;;;;;;;;;;;;;;;5057257;28;20008;-78
2022/08/06 13:15:11;;;;;;;;;;;;;;;;;;5056846;28;19976;-78
2022/08/06 13:17:38;;;;;;;;;;;;;;;;;;5056193;28;20370;-77
2022/08/06 13:20:05;;;;;;;;;;;;;;;;;;5055900;28;19968;-77
2022/08/06 13:22:31;;;;;;;;;;;;;;;;;;5055772;28;19925;-79
2022/08/06 13:25:10;;;;;;;;;;;;;;;;;;5057963;28;19960;-78
2022/08/06 13:27:38;;;;;;;;;;;;;;;;;;5055368;28;20446;-77
2022/08/06 13:30:06;;;;;;;;;;;;;;;;;;5054269;28;20385;-77
2022/08/06 13:32:32;;;;;;;;;;;;;;;;;;5055232;28;20399;-78
2022/08/06 13:34:59;;;;;;;;;;;;;;;;;;5055749;28;20016;-78
2022/08/06 13:37:42;;;;;;;;;;;;;;;;;;5055057;28;19979;-78
2022/08/06 13:40:09;;;;;;;;;;;;;;;;;;5057148;28;19939;-78
2022/08/06 13:42:49;;;;;;;;;;;;;;;;;;5057391;28;19925;-78
2022/08/06 13:45:19;;;;;;;;;;;;;;;;;;5056203;28;20020;-77
2022/08/06 13:47:49;;;;;;;;;;;;;;;;;;5054711;28;20394;-78
2022/08/06 13:50:16;;;;;;;;;;;;;;;;;;5054906;28;20027;-79
2022/08/06 13:52:42;;;;;;;;;;;;;;;;;;5055259;28;19989;-78
2022/08/06 13:55:09;;;;;;;;;;;;;;;;;;5054680;28;20058;-78
2022/08/06 13:57:36;;;;;;;;;;;;;;;;;;5055052;28;19925;-78
2022/08/06 14:00:04;;;;;;;;;;;;;;;;;;5052514;28;19936;-78
2022/08/06 14:02:30;;;;;;;;;;;;;;;;;;5035225;28;19925;-77
2022/08/06 14:04:57;;;;;;;;;;;;;;;;;;5035165;28;19979;-78
2022/08/06 14:07:23;;;;;;;;;;;;;;;;;;5035487;28;20023;-78
2022/08/06 14:09:50;;;;;;;;;;;;;;;;;;5034821;28;19972;-77
2022/08/06 14:12:16;;;;;;;;;;;;;;;;;;5034893;28;19964;-79
2022/08/06 14:14:43;;;;;;;;;;;;;;;;;;5034821;28;20371;-78
2022/08/06 14:17:11;;;;;;;;;;;;;;;;;;5034203;28;20337;-77
2022/08/06 14:19:37;;;;;;;;;;;;;;;;;;5033955;28;19965;-78
2022/08/06 14:22:04;;;;;;;;;;;;;;;;;;5034369;28;20319;-77
2022/08/06 14:24:30;;;;;;;;;;;;;;;;;;5034756;28;19925;-78
2022/08/06 14:26:57;;;;;;;;;;;;;;;;;;5034561;28;20384;-78
2022/08/06 14:29:23;;;;;;;;;;;;;;;;;;5034899;28;19929;-78
2022/08/06 14:31:50;;;;;;;;;;;;;;;;;;5034615;28;19956;-78
2022/08/06 14:34:18;;;;;;;;;;;;;;;;;;5036050;28;19925;-79
2022/08/06 14:36:45;;;;;;;;;;;;;;;;;;5034988;28;19983;-79
2022/08/06 14:39:11;;;;;;;;;;;;;;;;;;5034248;28;19931;-78
2022/08/06 14:47:07;;;;;;;;;;;;;;;;;;5034248;28;19936;-78
2022/08/06 14:49:35;;;;;;;;;;;;;;;;;;5033695;28;19925;-78
2022/08/06 14:52:02;;;;;;;;;;;;;;;;;;5033565;28;20090;-78
2022/08/06 14:54:28;;;;;;;;;;;;;;;;;;5033747;28;19925;-78
2022/08/06 14:56:55;;;;;;;;;;;;;;;;;;5033802;28;20012;-78
2022/08/06 14:59:22;;;;;;;;;;;;;;;;;;5033497;28;19925;-78
2022/08/06 15:01:48;;;;;;;;;;;;;;;;;;5049668;28;19925;-79
2022/08/06 15:04:15;;;;;;;;;;;;;;;;;;5054038;28;19951;-78
2022/08/06 15:06:43;;;;;;;;;;;;;;;;;;5053749;28;19976;-78
2022/08/06 15:09:09;;;;;;;;;;;;;;;;;;5053515;28;20398;-78
2022/08/06 15:11:35;;;;;;;;;;;;;;;;;;5054262;28;19983;-78
2022/08/06 15:14:02;;;;;;;;;;;;;;;;;;5053029;28;20011;-78
2022/08/06 15:16:28;;;;;;;;;;;;;;;;;;5054245;28;20375;-78
2022/08/06 15:18:55;;;;;;;;;;;;;;;;;;5053823;28;20024;-79
2022/08/06 15:21:21;;;;;;;;;;;;;;;;;;5055023;28;20004;-78
2022/08/06 15:23:49;;;;;;;;;;;;;;;;;;5053802;28;19932;-78
2022/08/06 15:26:16;;;;;;;;;;;;;;;;;;5053473;28;19964;-78
2022/08/06 15:28:42;;;;;;;;;;;;;;;;;;5053203;28;20003;-78
2022/08/06 15:31:09;;;;;;;;;;;;;;;;;;5052956;28;19964;-77
2022/08/06 15:33:36;;;;;;;;;;;;;;;;;;5121864;22;19960;-67
2022/08/06 15:36:02;;;;;;;;;;;;;;;;;;5092750;28;19932;-69
2022/08/06 15:38:29;;;;;;;;;;;;;;;;;;5092664;28;19924;-68
2022/08/06 15:40:57;;;;;;;;;;;;;;;;;;5092127;28;19971;-67
2022/08/06 15:43:24;;;;;;;;;;;;;;;;;;5079990;28;20334;-66
2022/08/06 15:45:51;;;;;;;;;;;;;;;;;;5072011;28;20046;-67
2022/08/06 15:48:20;;;;;;;;;;;;;;;;;;5072253;28;20006;-66
2022/08/06 15:50:47;;;;;;;;;;;;;;;;;;5071897;28;19924;-67
2022/08/06 15:53:13;;;;;;;;;;;;;;;;;;5072103;28;19924;-67
2022/08/06 15:55:40;;;;;;;;;;;;;;;;;;5072062;28;19954;-66
2022/08/06 15:58:08;;;;;;;;;;;;;;;;;;5072019;28;20296;-66
2022/08/06 16:00:36;;;;;;;;;;;;;;;;;;5072216;28;19978;-66
2022/08/06 16:03:02;;;;;;;;;;;;;;;;;;5076092;28;19950;-66
2022/08/06 16:05:29;;;;;;;;;;;;;;;;;;5076222;28;19928;-66
2022/08/06 16:07:56;;;;;;;;;;;;;;;;;;5076081;28;19931;-66
2022/08/06 16:10:24;;;;;;;;;;;;;;;;;;5075675;28;19928;-65
2022/08/06 16:12:51;;;;;;;;;;;;;;;;;;5075688;28;19925;-66
2022/08/06 16:15:19;;;;;;;;;;;;;;;;;;5076166;28;19924;-67
2022/08/06 16:17:45;;;;;;;;;;;;;;;;;;5075941;28;20395;-66
2022/08/06 16:20:12;;;;;;;;;;;;;;;;;;5075635;28;19951;-66
2022/08/06 16:22:39;;;;;;;;;;;;;;;;;;5075364;28;19924;-67
2022/08/06 16:25:06;;;;;;;;;;;;;;;;;;5075865;28;20408;-67
2022/08/06 16:27:33;;;;;;;;;;;;;;;;;;5075635;28;19928;-67
2022/08/06 16:29:59;;;;;;;;;;;;;;;;;;5075541;28;20008;-68
2022/08/06 16:32:27;;;;;;;;;;;;;;;;;;5075350;28;19979;-66
2022/08/06 16:34:58;;;;;;;;;;;;;;;;;;5075991;28;19925;-67
2022/08/06 16:37:25;;;;;;;;;;;;;;;;;;5075783;28;20288;-67
2022/08/06 16:39:52;;;;;;;;;;;;;;;;;;5075326;28;19925;-67
2022/08/06 16:42:18;;;;;;;;;;;;;;;;;;5075478;28;19924;-67
2022/08/06 16:44:45;;;;;;;;;;;;;;;;;;5075401;28;19935;-66
2022/08/06 16:47:12;;;;;;;;;;;;;;;;;;5075264;28;19931;-66
2022/08/06 16:49:41;;;;;;;;;;;;;;;;;;5056599;28;22146;-65
2022/08/06 16:52:08;;;;;;;;;;;;;;;;;;5075037;28;19928;-67
2022/08/06 16:54:35;;;;;;;;;;;;;;;;;;5075068;28;20371;-66
2022/08/06 16:57:01;;;;;;;;;;;;;;;;;;5075284;28;19924;-66
2022/08/06 16:59:28;;;;;;;;;;;;;;;;;;5074584;28;19925;-66
2022/08/06 17:04:35;;;;;;;;;;;;;;;;;;5073765;28;19948;-67
2022/08/06 17:07:03;;;;;;;;;;;;;;;;;;5075410;28;19990;-66